sensor_id;sensor_type;location;lat;lon;timestamp;P1;durP1;ratioP1;P2;durP2;ratioP2
68921;SDS011;55959;51.244;5.724;2023-04-08T00:02:02;8.30;;;7.23;;
68921;SDS011;55959;51.244;5.724;2023-04-08T00:04:28;8.47;;;6.83;;
68921;SDS011;55959;51.244;5.724;2023-04-08T00:06:53;9.17;;;6.90;;
68921;SDS011;55959;51.244;5.724;2023-04-08T00:09:20;8.80;;;7.37;;
68921;SDS011;55959;51.244;5.724;2023-04-08T00:11:45;9.60;;;7.40;;
68921;SDS011;55959;51.244;5.724;2023-04-08T00:14:11;8.80;;;7.53;;
68921;SDS011;55959;51.244;5.724;2023-04-08T00:16:37;11.53;;;7.83;;
68921;SDS011;55959;51.244;5.724;2023-04-08T00:19:02;8.83;;;6.93;;
68921;SDS011;55959;51.244;5.724;2023-04-08T00:21:30;11.67;;;7.60;;
68921;SDS011;55959;51.244;5.724;2023-04-08T00:23:56;7.50;;;6.70;;
68921;SDS011;55959;51.244;5.724;2023-04-08T00:26:22;7.97;;;7.00;;
68921;SDS011;55959;51.244;5.724;2023-04-08T00:28:48;8.50;;;6.70;;
68921;SDS011;55959;51.244;5.724;2023-04-08T00:31:13;7.77;;;6.97;;
68921;SDS011;55959;51.244;5.724;2023-04-08T00:33:39;9.77;;;7.93;;
68921;SDS011;55959;51.244;5.724;2023-04-08T00:36:05;8.53;;;7.63;;
68921;SDS011;55959;51.244;5.724;2023-04-08T00:38:31;9.87;;;7.43;;
68921;SDS011;55959;51.244;5.724;2023-04-08T00:40:56;8.90;;;7.60;;
68921;SDS011;55959;51.244;5.724;2023-04-08T00:43:22;11.47;;;8.17;;
68921;SDS011;55959;51.244;5.724;2023-04-08T00:45:49;10.20;;;7.70;;
68921;SDS011;55959;51.244;5.724;2023-04-08T00:48:15;8.70;;;7.60;;
68921;SDS011;55959;51.244;5.724;2023-04-08T00:50:42;11.33;;;7.93;;
68921;SDS011;55959;51.244;5.724;2023-04-08T00:53:08;10.73;;;8.03;;
68921;SDS011;55959;51.244;5.724;2023-04-08T00:55:34;9.40;;;8.07;;
68921;SDS011;55959;51.244;5.724;2023-04-08T00:58:00;9.27;;;7.60;;
68921;SDS011;55959;51.244;5.724;2023-04-08T01:00:27;11.57;;;7.47;;
68921;SDS011;55959;51.244;5.724;2023-04-08T01:08:29;10.37;;;8.93;;
68921;SDS011;55959;51.244;5.724;2023-04-08T01:11:00;12.07;;;9.20;;
68921;SDS011;55959;51.244;5.724;2023-04-08T01:13:28;10.50;;;9.27;;
68921;SDS011;55959;51.244;5.724;2023-04-08T01:15:59;10.23;;;8.77;;
68921;SDS011;55959;51.244;5.724;2023-04-08T01:18:25;9.13;;;8.23;;
68921;SDS011;55959;51.244;5.724;2023-04-08T01:20:52;11.10;;;8.87;;
68921;SDS011;55959;51.244;5.724;2023-04-08T01:23:22;9.63;;;8.53;;
68921;SDS011;55959;51.244;5.724;2023-04-08T01:25:58;9.87;;;8.87;;
68921;SDS011;55959;51.244;5.724;2023-04-08T01:28:24;12.50;;;9.10;;
68921;SDS011;55959;51.244;5.724;2023-04-08T01:30:54;11.20;;;9.00;;
68921;SDS011;55959;51.244;5.724;2023-04-08T01:33:22;10.73;;;9.07;;
68921;SDS011;55959;51.244;5.724;2023-04-08T01:35:49;10.70;;;9.70;;
68921;SDS011;55959;51.244;5.724;2023-04-08T01:38:17;10.13;;;9.00;;
68921;SDS011;55959;51.244;5.724;2023-04-08T01:40:45;12.50;;;9.87;;
68921;SDS011;55959;51.244;5.724;2023-04-08T01:43:15;10.43;;;9.37;;
68921;SDS011;55959;51.244;5.724;2023-04-08T01:45:43;10.40;;;8.60;;
68921;SDS011;55959;51.244;5.724;2023-04-08T01:48:12;14.00;;;9.43;;
68921;SDS011;55959;51.244;5.724;2023-04-08T01:50:40;11.47;;;10.33;;
68921;SDS011;55959;51.244;5.724;2023-04-08T01:53:08;12.00;;;10.10;;
68921;SDS011;55959;51.244;5.724;2023-04-08T01:55:36;11.27;;;9.30;;
68921;SDS011;55959;51.244;5.724;2023-04-08T01:58:05;10.60;;;8.97;;
68921;SDS011;55959;51.244;5.724;2023-04-08T02:00:33;9.43;;;8.53;;
68921;SDS011;55959;51.244;5.724;2023-04-08T02:03:01;10.63;;;9.33;;
68921;SDS011;55959;51.244;5.724;2023-04-08T02:05:28;10.90;;;9.77;;
68921;SDS011;55959;51.244;5.724;2023-04-08T02:07:53;12.37;;;9.63;;
68921;SDS011;55959;51.244;5.724;2023-04-08T02:10:19;13.03;;;10.83;;
68921;SDS011;55959;51.244;5.724;2023-04-08T02:12:45;11.07;;;9.83;;
68921;SDS011;55959;51.244;5.724;2023-04-08T02:15:11;13.50;;;9.90;;
68921;SDS011;55959;51.244;5.724;2023-04-08T02:25:27;14.00;;;10.83;;
68921;SDS011;55959;51.244;5.724;2023-04-08T02:27:54;11.30;;;10.03;;
68921;SDS011;55959;51.244;5.724;2023-04-08T02:30:21;13.87;;;11.00;;
68921;SDS011;55959;51.244;5.724;2023-04-08T02:32:49;13.00;;;11.40;;
68921;SDS011;55959;51.244;5.724;2023-04-08T02:35:19;12.73;;;10.73;;
68921;SDS011;55959;51.244;5.724;2023-04-08T02:37:45;11.67;;;9.70;;
68921;SDS011;55959;51.244;5.724;2023-04-08T02:40:30;12.93;;;10.27;;
68921;SDS011;55959;51.244;5.724;2023-04-08T02:42:58;12.33;;;10.77;;
68921;SDS011;55959;51.244;5.724;2023-04-08T02:45:26;13.00;;;10.53;;
68921;SDS011;55959;51.244;5.724;2023-04-08T02:47:55;12.97;;;10.90;;
68921;SDS011;55959;51.244;5.724;2023-04-08T02:50:22;12.70;;;11.07;;
68921;SDS011;55959;51.244;5.724;2023-04-08T02:52:48;13.57;;;11.63;;
68921;SDS011;55959;51.244;5.724;2023-04-08T02:55:14;13.93;;;10.73;;
68921;SDS011;55959;51.244;5.724;2023-04-08T02:57:41;13.27;;;11.70;;
68921;SDS011;55959;51.244;5.724;2023-04-08T03:00:07;14.93;;;12.50;;
68921;SDS011;55959;51.244;5.724;2023-04-08T03:02:34;13.03;;;11.57;;
68921;SDS011;55959;51.244;5.724;2023-04-08T03:05:00;14.13;;;12.67;;
68921;SDS011;55959;51.244;5.724;2023-04-08T03:07:26;12.93;;;11.07;;
68921;SDS011;55959;51.244;5.724;2023-04-08T03:09:52;13.00;;;11.13;;
68921;SDS011;55959;51.244;5.724;2023-04-08T03:12:19;10.73;;;9.73;;
68921;SDS011;55959;51.244;5.724;2023-04-08T03:14:46;11.63;;;9.97;;
68921;SDS011;55959;51.244;5.724;2023-04-08T03:17:12;11.67;;;10.03;;
68921;SDS011;55959;51.244;5.724;2023-04-08T03:19:37;10.70;;;9.60;;
68921;SDS011;55959;51.244;5.724;2023-04-08T03:22:03;13.07;;;10.60;;
68921;SDS011;55959;51.244;5.724;2023-04-08T03:24:29;13.73;;;11.03;;
68921;SDS011;55959;51.244;5.724;2023-04-08T03:26:55;15.23;;;12.13;;
68921;SDS011;55959;51.244;5.724;2023-04-08T03:29:20;12.60;;;11.37;;
68921;SDS011;55959;51.244;5.724;2023-04-08T03:31:46;14.13;;;11.10;;
68921;SDS011;55959;51.244;5.724;2023-04-08T03:34:12;15.87;;;12.03;;
68921;SDS011;55959;51.244;5.724;2023-04-08T03:36:37;14.03;;;12.17;;
68921;SDS011;55959;51.244;5.724;2023-04-08T03:39:03;13.33;;;11.07;;
68921;SDS011;55959;51.244;5.724;2023-04-08T03:41:29;14.00;;;12.43;;
68921;SDS011;55959;51.244;5.724;2023-04-08T03:43:56;18.37;;;12.83;;
68921;SDS011;55959;51.244;5.724;2023-04-08T03:46:22;15.57;;;13.63;;
68921;SDS011;55959;51.244;5.724;2023-04-08T03:48:48;14.73;;;11.57;;
68921;SDS011;55959;51.244;5.724;2023-04-08T03:51:14;12.70;;;11.20;;
68921;SDS011;55959;51.244;5.724;2023-04-08T03:53:39;15.33;;;12.93;;
68921;SDS011;55959;51.244;5.724;2023-04-08T03:56:05;15.83;;;12.50;;
68921;SDS011;55959;51.244;5.724;2023-04-08T03:58:31;17.77;;;12.53;;
68921;SDS011;55959;51.244;5.724;2023-04-08T04:00:57;14.40;;;11.33;;
68921;SDS011;55959;51.244;5.724;2023-04-08T04:03:23;14.73;;;11.73;;
68921;SDS011;55959;51.244;5.724;2023-04-08T04:05:49;13.50;;;12.10;;
68921;SDS011;55959;51.244;5.724;2023-04-08T04:08:15;14.80;;;12.93;;
68921;SDS011;55959;51.244;5.724;2023-04-08T04:10:41;13.83;;;11.83;;
68921;SDS011;55959;51.244;5.724;2023-04-08T04:13:07;14.47;;;12.90;;
68921;SDS011;55959;51.244;5.724;2023-04-08T04:15:32;15.50;;;13.17;;
68921;SDS011;55959;51.244;5.724;2023-04-08T04:18:02;16.87;;;14.17;;
68921;SDS011;55959;51.244;5.724;2023-04-08T04:20:28;16.67;;;13.60;;
68921;SDS011;55959;51.244;5.724;2023-04-08T04:22:54;15.17;;;13.57;;
68921;SDS011;55959;51.244;5.724;2023-04-08T04:25:20;14.63;;;13.13;;
68921;SDS011;55959;51.244;5.724;2023-04-08T04:27:45;19.07;;;15.40;;
68921;SDS011;55959;51.244;5.724;2023-04-08T04:30:11;16.30;;;14.60;;
68921;SDS011;55959;51.244;5.724;2023-04-08T04:32:39;16.27;;;14.53;;
68921;SDS011;55959;51.244;5.724;2023-04-08T04:35:07;19.77;;;16.00;;
68921;SDS011;55959;51.244;5.724;2023-04-08T04:37:34;15.50;;;13.90;;
68921;SDS011;55959;51.244;5.724;2023-04-08T04:40:00;17.03;;;14.70;;
68921;SDS011;55959;51.244;5.724;2023-04-08T04:42:27;15.10;;;13.50;;
68921;SDS011;55959;51.244;5.724;2023-04-08T04:44:53;18.97;;;15.03;;
68921;SDS011;55959;51.244;5.724;2023-04-08T04:47:18;16.63;;;14.27;;
68921;SDS011;55959;51.244;5.724;2023-04-08T04:49:44;16.57;;;13.60;;
68921;SDS011;55959;51.244;5.724;2023-04-08T04:52:10;15.77;;;12.43;;
68921;SDS011;55959;51.244;5.724;2023-04-08T04:54:36;14.73;;;13.17;;
68921;SDS011;55959;51.244;5.724;2023-04-08T04:57:02;20.57;;;15.10;;
68921;SDS011;55959;51.244;5.724;2023-04-08T04:59:27;18.23;;;14.20;;
68921;SDS011;55959;51.244;5.724;2023-04-08T05:01:53;16.37;;;13.50;;
68921;SDS011;55959;51.244;5.724;2023-04-08T05:04:21;16.13;;;13.93;;
68921;SDS011;55959;51.244;5.724;2023-04-08T05:06:50;16.97;;;15.10;;
68921;SDS011;55959;51.244;5.724;2023-04-08T05:09:16;17.13;;;15.30;;
68921;SDS011;55959;51.244;5.724;2023-04-08T05:11:42;16.30;;;14.23;;
68921;SDS011;55959;51.244;5.724;2023-04-08T05:14:07;19.83;;;15.53;;
68921;SDS011;55959;51.244;5.724;2023-04-08T05:16:33;16.20;;;14.07;;
68921;SDS011;55959;51.244;5.724;2023-04-08T05:18:59;17.07;;;14.80;;
68921;SDS011;55959;51.244;5.724;2023-04-08T05:21:25;17.70;;;14.37;;
68921;SDS011;55959;51.244;5.724;2023-04-08T05:23:51;21.87;;;17.47;;
68921;SDS011;55959;51.244;5.724;2023-04-08T05:26:21;20.47;;;16.17;;
68921;SDS011;55959;51.244;5.724;2023-04-08T05:28:48;16.80;;;15.10;;
68921;SDS011;55959;51.244;5.724;2023-04-08T05:31:18;19.00;;;16.33;;
68921;SDS011;55959;51.244;5.724;2023-04-08T05:33:47;17.93;;;15.30;;
68921;SDS011;55959;51.244;5.724;2023-04-08T05:36:18;19.17;;;15.67;;
68921;SDS011;55959;51.244;5.724;2023-04-08T05:38:45;17.47;;;15.07;;
68921;SDS011;55959;51.244;5.724;2023-04-08T05:41:11;19.17;;;15.90;;
68921;SDS011;55959;51.244;5.724;2023-04-08T05:43:36;17.57;;;15.37;;
68921;SDS011;55959;51.244;5.724;2023-04-08T05:46:06;18.33;;;15.23;;
68921;SDS011;55959;51.244;5.724;2023-04-08T05:48:32;18.73;;;15.23;;
68921;SDS011;55959;51.244;5.724;2023-04-08T05:50:58;18.60;;;15.13;;
68921;SDS011;55959;51.244;5.724;2023-04-08T05:53:24;18.87;;;15.73;;
68921;SDS011;55959;51.244;5.724;2023-04-08T05:55:50;21.00;;;16.37;;
68921;SDS011;55959;51.244;5.724;2023-04-08T05:58:16;21.07;;;16.77;;
68921;SDS011;55959;51.244;5.724;2023-04-08T06:00:42;22.07;;;16.60;;
68921;SDS011;55959;51.244;5.724;2023-04-08T06:03:07;19.27;;;15.03;;
68921;SDS011;55959;51.244;5.724;2023-04-08T06:05:33;19.37;;;15.63;;
68921;SDS011;55959;51.244;5.724;2023-04-08T06:08:00;20.50;;;16.13;;
68921;SDS011;55959;51.244;5.724;2023-04-08T06:10:26;24.53;;;17.53;;
68921;SDS011;55959;51.244;5.724;2023-04-08T06:12:51;22.30;;;17.13;;
68921;SDS011;55959;51.244;5.724;2023-04-08T06:15:17;21.17;;;15.43;;
68921;SDS011;55959;51.244;5.724;2023-04-08T06:17:44;20.90;;;16.30;;
68921;SDS011;55959;51.244;5.724;2023-04-08T06:20:10;23.70;;;17.93;;
68921;SDS011;55959;51.244;5.724;2023-04-08T06:22:35;19.97;;;15.53;;
68921;SDS011;55959;51.244;5.724;2023-04-08T06:25:02;24.17;;;18.93;;
68921;SDS011;55959;51.244;5.724;2023-04-08T06:27:29;22.20;;;18.33;;
68921;SDS011;55959;51.244;5.724;2023-04-08T06:29:55;22.77;;;18.53;;
68921;SDS011;55959;51.244;5.724;2023-04-08T06:32:21;27.63;;;18.63;;
68921;SDS011;55959;51.244;5.724;2023-04-08T06:34:47;19.03;;;15.33;;
68921;SDS011;55959;51.244;5.724;2023-04-08T06:37:13;23.27;;;17.07;;
68921;SDS011;55959;51.244;5.724;2023-04-08T06:39:39;23.13;;;16.30;;
68921;SDS011;55959;51.244;5.724;2023-04-08T06:42:05;21.80;;;18.00;;
68921;SDS011;55959;51.244;5.724;2023-04-08T06:44:31;22.83;;;17.57;;
68921;SDS011;55959;51.244;5.724;2023-04-08T06:46:56;22.10;;;16.87;;
68921;SDS011;55959;51.244;5.724;2023-04-08T06:49:22;22.97;;;18.30;;
68921;SDS011;55959;51.244;5.724;2023-04-08T06:51:48;23.43;;;17.87;;
68921;SDS011;55959;51.244;5.724;2023-04-08T06:54:14;26.97;;;19.50;;
68921;SDS011;55959;51.244;5.724;2023-04-08T06:56:40;27.10;;;20.57;;
68921;SDS011;55959;51.244;5.724;2023-04-08T06:59:05;25.60;;;19.73;;
68921;SDS011;55959;51.244;5.724;2023-04-08T07:01:31;22.37;;;17.03;;
68921;SDS011;55959;51.244;5.724;2023-04-08T07:03:57;25.03;;;18.33;;
68921;SDS011;55959;51.244;5.724;2023-04-08T07:06:23;22.57;;;16.43;;
68921;SDS011;55959;51.244;5.724;2023-04-08T07:08:48;18.60;;;15.97;;
68921;SDS011;55959;51.244;5.724;2023-04-08T07:11:14;23.77;;;17.90;;
68921;SDS011;55959;51.244;5.724;2023-04-08T07:13:40;20.53;;;16.17;;
68921;SDS011;55959;51.244;5.724;2023-04-08T07:16:07;19.90;;;15.33;;
68921;SDS011;55959;51.244;5.724;2023-04-08T07:18:33;20.73;;;16.63;;
68921;SDS011;55959;51.244;5.724;2023-04-08T07:20:58;23.50;;;18.73;;
68921;SDS011;55959;51.244;5.724;2023-04-08T07:23:25;23.63;;;18.97;;
68921;SDS011;55959;51.244;5.724;2023-04-08T07:25:51;23.20;;;18.27;;
68921;SDS011;55959;51.244;5.724;2023-04-08T07:28:18;20.57;;;16.20;;
68921;SDS011;55959;51.244;5.724;2023-04-08T07:30:44;20.37;;;16.80;;
68921;SDS011;55959;51.244;5.724;2023-04-08T07:33:10;25.60;;;20.27;;
68921;SDS011;55959;51.244;5.724;2023-04-08T07:35:36;17.37;;;14.77;;
68921;SDS011;55959;51.244;5.724;2023-04-08T07:38:03;18.70;;;15.17;;
68921;SDS011;55959;51.244;5.724;2023-04-08T07:40:33;17.80;;;14.80;;
68921;SDS011;55959;51.244;5.724;2023-04-08T07:42:58;18.40;;;14.10;;
68921;SDS011;55959;51.244;5.724;2023-04-08T07:45:24;19.33;;;14.37;;
68921;SDS011;55959;51.244;5.724;2023-04-08T07:47:50;17.93;;;14.10;;
68921;SDS011;55959;51.244;5.724;2023-04-08T07:50:16;16.33;;;12.97;;
68921;SDS011;55959;51.244;5.724;2023-04-08T07:52:42;14.83;;;12.57;;
68921;SDS011;55959;51.244;5.724;2023-04-08T07:55:08;17.03;;;13.23;;
68921;SDS011;55959;51.244;5.724;2023-04-08T07:57:33;17.53;;;13.73;;
68921;SDS011;55959;51.244;5.724;2023-04-08T07:59:59;15.93;;;13.37;;
68921;SDS011;55959;51.244;5.724;2023-04-08T08:02:25;15.07;;;12.73;;
68921;SDS011;55959;51.244;5.724;2023-04-08T08:04:51;16.37;;;13.07;;
68921;SDS011;55959;51.244;5.724;2023-04-08T08:07:17;16.53;;;13.00;;
68921;SDS011;55959;51.244;5.724;2023-04-08T08:09:42;16.73;;;13.07;;
68921;SDS011;55959;51.244;5.724;2023-04-08T08:12:08;20.50;;;14.73;;
68921;SDS011;55959;51.244;5.724;2023-04-08T08:14:34;16.33;;;12.83;;
68921;SDS011;55959;51.244;5.724;2023-04-08T08:17:00;16.70;;;13.77;;
68921;SDS011;55959;51.244;5.724;2023-04-08T08:19:27;17.43;;;13.57;;
68921;SDS011;55959;51.244;5.724;2023-04-08T08:21:53;16.23;;;13.20;;
68921;SDS011;55959;51.244;5.724;2023-04-08T08:24:20;15.37;;;12.63;;
68921;SDS011;55959;51.244;5.724;2023-04-08T08:26:45;17.87;;;13.90;;
68921;SDS011;55959;51.244;5.724;2023-04-08T08:29:13;16.67;;;13.90;;
68921;SDS011;55959;51.244;5.724;2023-04-08T08:31:39;17.57;;;14.23;;
68921;SDS011;55959;51.244;5.724;2023-04-08T08:34:05;17.40;;;14.30;;
68921;SDS011;55959;51.244;5.724;2023-04-08T08:36:31;16.57;;;13.47;;
68921;SDS011;55959;51.244;5.724;2023-04-08T08:38:56;15.17;;;12.67;;
68921;SDS011;55959;51.244;5.724;2023-04-08T08:41:22;16.90;;;13.13;;
68921;SDS011;55959;51.244;5.724;2023-04-08T08:43:48;14.67;;;12.87;;
68921;SDS011;55959;51.244;5.724;2023-04-08T08:46:15;16.33;;;13.57;;
68921;SDS011;55959;51.244;5.724;2023-04-08T08:48:42;15.67;;;13.40;;
68921;SDS011;55959;51.244;5.724;2023-04-08T08:51:09;14.00;;;12.00;;
68921;SDS011;55959;51.244;5.724;2023-04-08T08:53:35;15.07;;;12.63;;
68921;SDS011;55959;51.244;5.724;2023-04-08T08:56:02;16.00;;;12.30;;
68921;SDS011;55959;51.244;5.724;2023-04-08T08:58:29;14.10;;;11.57;;
68921;SDS011;55959;51.244;5.724;2023-04-08T09:00:55;15.97;;;13.97;;
68921;SDS011;55959;51.244;5.724;2023-04-08T09:03:26;13.77;;;12.10;;
68921;SDS011;55959;51.244;5.724;2023-04-08T09:08:33;14.53;;;11.43;;
68921;SDS011;55959;51.244;5.724;2023-04-08T09:13:43;14.97;;;11.93;;
68921;SDS011;55959;51.244;5.724;2023-04-08T09:16:14;14.30;;;11.87;;
68921;SDS011;55959;51.244;5.724;2023-04-08T09:18:45;15.93;;;12.80;;
68921;SDS011;55959;51.244;5.724;2023-04-08T09:21:13;15.33;;;13.23;;
68921;SDS011;55959;51.244;5.724;2023-04-08T09:26:10;16.67;;;14.87;;
68921;SDS011;55959;51.244;5.724;2023-04-08T09:28:42;15.23;;;13.63;;
68921;SDS011;55959;51.244;5.724;2023-04-08T09:31:22;14.97;;;13.37;;
68921;SDS011;55959;51.244;5.724;2023-04-08T09:33:52;15.13;;;13.53;;
68921;SDS011;55959;51.244;5.724;2023-04-08T09:36:21;15.43;;;13.83;;
68921;SDS011;55959;51.244;5.724;2023-04-08T09:38:47;14.97;;;13.03;;
68921;SDS011;55959;51.244;5.724;2023-04-08T09:41:17;17.40;;;15.60;;
68921;SDS011;55959;51.244;5.724;2023-04-08T09:43:51;16.67;;;14.93;;
68921;SDS011;55959;51.244;5.724;2023-04-08T09:47:07;15.87;;;14.17;;
68921;SDS011;55959;51.244;5.724;2023-04-08T09:49:25;14.37;;;12.87;;
68921;SDS011;55959;51.244;5.724;2023-04-08T09:54:51;17.20;;;15.40;;
68921;SDS011;55959;51.244;5.724;2023-04-08T09:57:36;15.03;;;13.53;;
68921;SDS011;55959;51.244;5.724;2023-04-08T10:00:10;15.73;;;14.13;;
68921;SDS011;55959;51.244;5.724;2023-04-08T10:02:48;15.13;;;13.63;;
68921;SDS011;55959;51.244;5.724;2023-04-08T10:05:39;16.63;;;14.93;;
68921;SDS011;55959;51.244;5.724;2023-04-08T10:08:06;16.33;;;14.73;;
68921;SDS011;55959;51.244;5.724;2023-04-08T10:10:33;16.87;;;15.27;;
68921;SDS011;55959;51.244;5.724;2023-04-08T10:13:01;17.10;;;15.40;;
68921;SDS011;55959;51.244;5.724;2023-04-08T10:15:29;17.23;;;15.47;;
68921;SDS011;55959;51.244;5.724;2023-04-08T10:23:06;18.10;;;16.33;;
68921;SDS011;55959;51.244;5.724;2023-04-08T10:25:36;16.50;;;14.90;;
68921;SDS011;55959;51.244;5.724;2023-04-08T10:33:21;18.40;;;16.60;;
68921;SDS011;55959;51.244;5.724;2023-04-08T10:35:55;18.10;;;16.40;;
68921;SDS011;55959;51.244;5.724;2023-04-08T10:38:35;19.17;;;17.30;;
68921;SDS011;55959;51.244;5.724;2023-04-08T10:41:01;17.63;;;15.83;;
68921;SDS011;55959;51.244;5.724;2023-04-08T10:43:31;17.00;;;15.40;;
68921;SDS011;55959;51.244;5.724;2023-04-08T10:46:00;17.80;;;16.03;;
68921;SDS011;55959;51.244;5.724;2023-04-08T10:48:27;20.67;;;18.57;;
68921;SDS011;55959;51.244;5.724;2023-04-08T10:50:54;20.73;;;18.63;;
68921;SDS011;55959;51.244;5.724;2023-04-08T10:56:01;19.17;;;17.27;;
68921;SDS011;55959;51.244;5.724;2023-04-08T10:58:30;19.53;;;17.60;;
68921;SDS011;55959;51.244;5.724;2023-04-08T11:01:01;21.10;;;19.00;;
68921;SDS011;55959;51.244;5.724;2023-04-08T11:03:31;20.27;;;18.27;;
68921;SDS011;55959;51.244;5.724;2023-04-08T11:05:59;22.00;;;19.80;;
68921;SDS011;55959;51.244;5.724;2023-04-08T11:08:29;18.90;;;17.10;;
68921;SDS011;55959;51.244;5.724;2023-04-08T11:11:03;22.13;;;19.83;;
68921;SDS011;55959;51.244;5.724;2023-04-08T11:13:33;19.80;;;17.90;;
68921;SDS011;55959;51.244;5.724;2023-04-08T11:16:05;17.87;;;15.97;;
68921;SDS011;55959;51.244;5.724;2023-04-08T11:18:36;17.97;;;16.27;;
68921;SDS011;55959;51.244;5.724;2023-04-08T11:21:10;17.87;;;15.97;;
68921;SDS011;55959;51.244;5.724;2023-04-08T11:23:35;17.93;;;16.23;;
68921;SDS011;55959;51.244;5.724;2023-04-08T11:26:01;17.07;;;15.37;;
68921;SDS011;55959;51.244;5.724;2023-04-08T11:28:28;18.47;;;16.70;;
68921;SDS011;55959;51.244;5.724;2023-04-08T11:30:54;18.53;;;16.63;;
68921;SDS011;55959;51.244;5.724;2023-04-08T11:33:23;16.17;;;14.60;;
68921;SDS011;55959;51.244;5.724;2023-04-08T11:35:51;15.87;;;14.43;;
68921;SDS011;55959;51.244;5.724;2023-04-08T11:38:20;14.20;;;12.83;;
68921;SDS011;55959;51.244;5.724;2023-04-08T11:40:52;15.60;;;14.10;;
68921;SDS011;55959;51.244;5.724;2023-04-08T11:43:19;15.30;;;13.80;;
68921;SDS011;55959;51.244;5.724;2023-04-08T11:45:45;14.23;;;12.73;;
68921;SDS011;55959;51.244;5.724;2023-04-08T11:48:11;13.60;;;11.93;;
68921;SDS011;55959;51.244;5.724;2023-04-08T11:50:40;15.23;;;13.73;;
68921;SDS011;55959;51.244;5.724;2023-04-08T11:53:20;17.03;;;14.60;;
68921;SDS011;55959;51.244;5.724;2023-04-08T11:55:49;16.57;;;14.90;;
68921;SDS011;55959;51.244;5.724;2023-04-08T11:58:15;15.60;;;14.10;;
68921;SDS011;55959;51.244;5.724;2023-04-08T12:00:41;15.33;;;13.93;;
68921;SDS011;55959;51.244;5.724;2023-04-08T12:03:07;16.00;;;14.50;;
68921;SDS011;55959;51.244;5.724;2023-04-08T12:05:34;14.93;;;13.53;;
68921;SDS011;55959;51.244;5.724;2023-04-08T12:08:00;16.87;;;14.93;;
68921;SDS011;55959;51.244;5.724;2023-04-08T12:10:27;14.27;;;12.90;;
68921;SDS011;55959;51.244;5.724;2023-04-08T12:12:53;13.03;;;11.83;;
68921;SDS011;55959;51.244;5.724;2023-04-08T12:15:18;15.07;;;13.57;;
68921;SDS011;55959;51.244;5.724;2023-04-08T12:17:44;15.27;;;13.77;;
68921;SDS011;55959;51.244;5.724;2023-04-08T12:20:11;13.20;;;11.90;;
68921;SDS011;55959;51.244;5.724;2023-04-08T12:22:37;14.50;;;13.10;;
68921;SDS011;55959;51.244;5.724;2023-04-08T12:25:03;14.63;;;13.27;;
68921;SDS011;55959;51.244;5.724;2023-04-08T12:27:30;14.23;;;12.97;;
68921;SDS011;55959;51.244;5.724;2023-04-08T12:30:00;11.20;;;10.10;;
68921;SDS011;55959;51.244;5.724;2023-04-08T12:32:27;13.57;;;12.27;;
68921;SDS011;55959;51.244;5.724;2023-04-08T12:34:53;12.70;;;11.50;;
68921;SDS011;55959;51.244;5.724;2023-04-08T12:37:18;13.73;;;12.43;;
68921;SDS011;55959;51.244;5.724;2023-04-08T12:39:47;15.63;;;14.13;;
68921;SDS011;55959;51.244;5.724;2023-04-08T12:42:13;15.40;;;13.90;;
68921;SDS011;55959;51.244;5.724;2023-04-08T12:44:39;13.83;;;12.43;;
68921;SDS011;55959;51.244;5.724;2023-04-08T12:47:05;13.13;;;11.83;;
68921;SDS011;55959;51.244;5.724;2023-04-08T12:49:30;13.10;;;11.67;;
68921;SDS011;55959;51.244;5.724;2023-04-08T12:51:56;12.13;;;11.03;;
68921;SDS011;55959;51.244;5.724;2023-04-08T12:54:22;12.60;;;11.50;;
68921;SDS011;55959;51.244;5.724;2023-04-08T12:56:49;12.33;;;11.23;;
68921;SDS011;55959;51.244;5.724;2023-04-08T12:59:14;12.13;;;10.90;;
68921;SDS011;55959;51.244;5.724;2023-04-08T13:01:41;10.77;;;9.73;;
68921;SDS011;55959;51.244;5.724;2023-04-08T13:04:08;13.80;;;12.50;;
68921;SDS011;55959;51.244;5.724;2023-04-08T13:09:04;14.00;;;12.60;;
68921;SDS011;55959;51.244;5.724;2023-04-08T13:11:30;14.70;;;13.30;;
68921;SDS011;55959;51.244;5.724;2023-04-08T13:13:58;12.93;;;11.63;;
68921;SDS011;55959;51.244;5.724;2023-04-08T13:16:26;12.00;;;10.83;;
68921;SDS011;55959;51.244;5.724;2023-04-08T13:19:03;14.17;;;12.87;;
68921;SDS011;55959;51.244;5.724;2023-04-08T13:21:30;12.63;;;11.43;;
68921;SDS011;55959;51.244;5.724;2023-04-08T13:23:58;13.43;;;12.23;;
68921;SDS011;55959;51.244;5.724;2023-04-08T13:26:25;10.93;;;9.83;;
68921;SDS011;55959;51.244;5.724;2023-04-08T13:31:20;8.90;;;8.10;;
68921;SDS011;55959;51.244;5.724;2023-04-08T13:33:46;8.23;;;7.53;;
68921;SDS011;55959;51.244;5.724;2023-04-08T13:36:14;11.10;;;10.07;;
68921;SDS011;55959;51.244;5.724;2023-04-08T13:38:41;9.40;;;8.17;;
68921;SDS011;55959;51.244;5.724;2023-04-08T13:41:09;9.63;;;8.83;;
68921;SDS011;55959;51.244;5.724;2023-04-08T13:43:36;10.57;;;9.57;;
68921;SDS011;55959;51.244;5.724;2023-04-08T13:46:04;11.90;;;10.87;;
68921;SDS011;55959;51.244;5.724;2023-04-08T13:53:49;13.13;;;11.93;;
68921;SDS011;55959;51.244;5.724;2023-04-08T13:56:16;11.47;;;10.27;;
68921;SDS011;55959;51.244;5.724;2023-04-08T13:58:41;11.97;;;10.97;;
68921;SDS011;55959;51.244;5.724;2023-04-08T14:03:41;12.20;;;11.10;;
68921;SDS011;55959;51.244;5.724;2023-04-08T14:06:10;13.77;;;12.50;;
68921;SDS011;55959;51.244;5.724;2023-04-08T14:08:36;14.67;;;13.20;;
68921;SDS011;55959;51.244;5.724;2023-04-08T14:11:03;14.60;;;13.20;;
68921;SDS011;55959;51.244;5.724;2023-04-08T14:13:35;15.67;;;14.20;;
68921;SDS011;55959;51.244;5.724;2023-04-08T14:18:50;13.57;;;11.93;;
68921;SDS011;55959;51.244;5.724;2023-04-08T14:21:26;15.30;;;13.80;;
68921;SDS011;55959;51.244;5.724;2023-04-08T14:23:52;14.20;;;13.00;;
68921;SDS011;55959;51.244;5.724;2023-04-08T14:26:21;14.47;;;13.27;;
68921;SDS011;55959;51.244;5.724;2023-04-08T14:28:48;14.90;;;13.50;;
68921;SDS011;55959;51.244;5.724;2023-04-08T14:31:28;14.67;;;13.37;;
68921;SDS011;55959;51.244;5.724;2023-04-08T14:34:11;15.77;;;14.23;;
68921;SDS011;55959;51.244;5.724;2023-04-08T14:39:22;14.30;;;13.00;;
68921;SDS011;55959;51.244;5.724;2023-04-08T14:41:47;16.60;;;14.97;;
68921;SDS011;55959;51.244;5.724;2023-04-08T14:46:45;16.67;;;15.17;;
68921;SDS011;55959;51.244;5.724;2023-04-08T14:49:11;15.77;;;14.20;;
68921;SDS011;55959;51.244;5.724;2023-04-08T14:51:36;11.70;;;10.60;;
68921;SDS011;55959;51.244;5.724;2023-04-08T14:56:34;12.87;;;11.67;;
68921;SDS011;55959;51.244;5.724;2023-04-08T14:59:08;12.10;;;11.00;;
68921;SDS011;55959;51.244;5.724;2023-04-08T15:01:33;13.53;;;12.33;;
68921;SDS011;55959;51.244;5.724;2023-04-08T15:03:59;11.83;;;10.63;;
68921;SDS011;55959;51.244;5.724;2023-04-08T15:09:21;13.30;;;12.00;;
68921;SDS011;55959;51.244;5.724;2023-04-08T15:14:15;14.80;;;13.47;;
68921;SDS011;55959;51.244;5.724;2023-04-08T15:16:41;14.53;;;13.23;;
68921;SDS011;55959;51.244;5.724;2023-04-08T15:19:11;12.17;;;11.07;;
68921;SDS011;55959;51.244;5.724;2023-04-08T15:27:07;13.20;;;12.00;;
68921;SDS011;55959;51.244;5.724;2023-04-08T15:29:33;12.17;;;11.00;;
68921;SDS011;55959;51.244;5.724;2023-04-08T15:31:59;12.97;;;11.87;;
68921;SDS011;55959;51.244;5.724;2023-04-08T15:34:25;12.93;;;11.73;;
68921;SDS011;55959;51.244;5.724;2023-04-08T15:36:53;10.87;;;9.87;;
68921;SDS011;55959;51.244;5.724;2023-04-08T15:39:31;9.70;;;8.80;;